createdAt,value
2018-09-12T00:00:11.804Z,14.70
2018-09-12T00:02:44.509Z,14.60
2018-09-12T00:05:14.889Z,14.50
2018-09-12T00:07:46.354Z,14.50
2018-09-12T00:10:16.670Z,14.50
2018-09-12T00:12:47.365Z,14.40
2018-09-12T00:15:18.699Z,14.40
2018-09-12T00:17:49.427Z,14.40
2018-09-12T00:20:19.755Z,14.40
2018-09-12T00:22:50.588Z,14.30
2018-09-12T00:25:20.901Z,14.30
2018-09-12T00:27:52.468Z,14.20
2018-09-12T00:30:24.463Z,14.20
2018-09-12T00:32:54.829Z,14.20
2018-09-12T00:35:25.189Z,14.20
2018-09-12T00:37:55.798Z,14.10
2018-09-12T00:40:27.530Z,14.10
2018-09-12T00:42:58.107Z,14.00
2018-09-12T00:45:29.180Z,14.00
2018-09-12T00:47:59.676Z,14.00
2018-09-12T00:50:30.030Z,14.10
2018-09-12T00:53:00.732Z,14.10
2018-09-12T00:55:31.080Z,14.10
2018-09-12T00:58:01.680Z,14.10
2018-09-12T01:00:32.341Z,14.00
2018-09-12T01:03:02.793Z,14.00
2018-09-12T01:05:33.068Z,14.00
2018-09-12T01:08:03.620Z,13.90
2018-09-12T01:10:35.534Z,13.90
2018-09-12T01:13:07.469Z,14.00
2018-09-12T01:15:37.855Z,14.00
2018-09-12T01:18:12.469Z,13.90
2018-09-12T01:20:42.827Z,13.90
2018-09-12T01:23:15.253Z,13.80
2018-09-12T01:25:45.977Z,13.80
2018-09-12T01:28:16.374Z,13.90
2018-09-12T01:30:46.823Z,13.80
2018-09-12T01:33:17.281Z,13.80
2018-09-12T01:35:47.821Z,13.80
2018-09-12T01:38:18.515Z,13.80
2018-09-12T01:40:48.877Z,13.80
2018-09-12T01:43:19.746Z,13.70
2018-09-12T01:45:50.645Z,13.70
2018-09-12T01:48:21.215Z,13.70
2018-09-12T01:50:53.589Z,13.70
2018-09-12T01:53:23.973Z,13.60
2018-09-12T01:55:54.481Z,13.60
2018-09-12T01:58:25.005Z,13.60
2018-09-12T02:00:57.042Z,13.60
2018-09-12T02:03:29.796Z,13.50
2018-09-12T02:06:01.128Z,13.50
2018-09-12T02:08:31.540Z,13.50
2018-09-12T02:11:03.224Z,13.50
2018-09-12T02:13:34.762Z,13.50
2018-09-12T02:16:06.027Z,13.40
2018-09-12T02:18:36.434Z,13.40
2018-09-12T02:21:07.243Z,13.40
2018-09-12T02:23:37.596Z,13.40
2018-09-12T02:26:08.267Z,13.40
2018-09-12T02:28:40.009Z,13.30
2018-09-12T02:31:10.662Z,13.30
2018-09-12T02:33:42.153Z,13.20
2018-09-12T02:36:18.838Z,13.20
2018-09-12T02:38:49.249Z,13.20
2018-09-12T02:41:19.802Z,13.20
2018-09-12T02:43:50.168Z,13.20
2018-09-12T02:46:21.033Z,13.10
2018-09-12T02:48:53.240Z,13.10
2018-09-12T02:51:23.569Z,13.10
2018-09-12T02:53:54.427Z,13.00
2018-09-12T02:56:25.382Z,13.00
2018-09-12T02:58:55.741Z,12.90
2018-09-12T03:01:26.061Z,12.90
2018-09-12T03:04:18.457Z,12.90
2018-09-12T03:06:49.202Z,12.90
2018-09-12T03:09:19.515Z,13.00
2018-09-12T03:11:49.985Z,12.90
2018-09-12T03:14:20.391Z,12.80
2018-09-12T03:16:51.025Z,12.80
2018-09-12T03:19:25.732Z,12.80
2018-09-12T03:21:56.112Z,12.70
2018-09-12T03:24:27.155Z,12.70
2018-09-12T03:26:58.453Z,12.70
2018-09-12T03:29:29.412Z,12.70
2018-09-12T03:31:59.948Z,12.70
2018-09-12T03:34:31.328Z,12.70
2018-09-12T03:37:01.674Z,12.70
2018-09-12T03:39:32.276Z,12.70
2018-09-12T03:42:02.753Z,12.70
2018-09-12T03:44:33.070Z,12.70
2018-09-12T03:47:03.420Z,12.70
2018-09-12T03:49:34.288Z,12.70
2018-09-12T03:52:04.601Z,12.60
2018-09-12T03:54:34.950Z,12.50
2018-09-12T03:57:05.471Z,12.50
2018-09-12T03:59:36.198Z,12.50
2018-09-12T04:02:06.707Z,12.50
2018-09-12T04:04:37.169Z,12.50
2018-09-12T04:07:07.496Z,12.50
2018-09-12T04:09:37.868Z,12.50
2018-09-12T04:12:09.029Z,12.50
2018-09-12T04:14:39.467Z,12.50
2018-09-12T04:17:10.229Z,12.50
2018-09-12T04:19:40.697Z,12.40
2018-09-12T04:22:11.094Z,12.40
2018-09-12T04:24:42.267Z,12.30
2018-09-12T04:27:12.945Z,12.30
2018-09-12T04:29:43.422Z,12.30
2018-09-12T04:32:13.749Z,12.30
2018-09-12T04:34:44.521Z,12.30
2018-09-12T04:37:15.145Z,12.30
2018-09-12T04:39:45.957Z,12.40
2018-09-12T04:42:17.245Z,12.40
2018-09-12T04:44:48.246Z,12.40
2018-09-12T04:47:18.786Z,12.40
2018-09-12T04:49:49.269Z,12.40
2018-09-12T04:52:19.727Z,12.50
2018-09-12T04:54:50.362Z,12.40
2018-09-12T04:57:21.177Z,12.40
2018-09-12T04:59:52.099Z,12.40
2018-09-12T05:02:22.747Z,12.40
2018-09-12T05:04:53.410Z,12.50
2018-09-12T05:07:23.866Z,12.50
2018-09-12T05:09:54.642Z,12.50
2018-09-12T05:12:24.982Z,12.50
2018-09-12T05:14:56.780Z,12.60
2018-09-12T05:17:27.264Z,12.60
2018-09-12T05:19:58.413Z,12.70
2018-09-12T05:22:30.605Z,12.70
2018-09-12T05:25:01.447Z,12.80
2018-09-12T05:27:33.021Z,12.80
2018-09-12T05:30:04.825Z,12.90
2018-09-12T05:32:39.888Z,12.90
2018-09-12T05:35:13.742Z,13.00
2018-09-12T05:37:48.809Z,13.00
2018-09-12T05:40:21.096Z,13.10
2018-09-12T05:43:03.570Z,13.10
2018-09-12T05:50:50.161Z,13.20
2018-09-12T05:53:21.778Z,13.30
2018-09-12T06:09:43.961Z,13.60
2018-09-12T06:12:22.583Z,14.00
2018-09-12T06:14:55.703Z,14.10
2018-09-12T06:17:26.675Z,14.20
2018-09-12T06:20:12.014Z,14.30
2018-09-12T06:22:45.299Z,14.30
2018-09-12T06:25:19.370Z,14.40
2018-09-12T06:28:36.698Z,14.50
2018-09-12T06:31:17.977Z,14.60
2018-09-12T06:34:05.400Z,14.70
2018-09-12T06:40:29.411Z,14.90
2018-09-12T06:43:12.332Z,15.00
2018-09-12T06:45:42.859Z,15.10
2018-09-12T06:48:14.122Z,15.20
2018-09-12T06:50:44.814Z,15.20
2018-09-12T06:53:15.840Z,15.30
2018-09-12T06:55:46.337Z,15.40
2018-09-12T06:58:17.260Z,15.50
2018-09-12T07:00:54.972Z,15.60
2018-09-12T07:03:28.897Z,15.70
2018-09-12T07:06:02.912Z,15.70
2018-09-12T07:08:34.098Z,15.80
2018-09-12T07:11:06.274Z,15.90
2018-09-12T07:13:37.336Z,16.00
2018-09-12T07:16:08.258Z,16.10
2018-09-12T07:18:41.205Z,16.10
2018-09-12T07:21:13.636Z,16.20
2018-09-12T07:23:44.133Z,16.30
2018-09-12T07:26:14.504Z,16.40
2018-09-12T07:28:45.236Z,16.50
2018-09-12T07:31:15.667Z,16.60
2018-09-12T07:33:46.544Z,16.70
2018-09-12T07:36:17.036Z,16.80
2018-09-12T07:38:47.671Z,16.90
2018-09-12T07:41:19.221Z,17.00
2018-09-12T07:43:51.179Z,17.00
2018-09-12T07:46:23.327Z,17.20
2018-09-12T07:48:56.225Z,17.30
2018-09-12T07:51:27.017Z,17.40
2018-09-12T07:53:57.966Z,17.40
2018-09-12T07:56:28.647Z,17.60
2018-09-12T07:58:58.960Z,17.70
2018-09-12T08:01:29.385Z,17.80
2018-09-12T08:04:00.460Z,17.90
2018-09-12T08:06:31.076Z,18.00
2018-09-12T08:09:02.974Z,18.10
2018-09-12T08:11:33.884Z,18.30
2018-09-12T08:14:06.143Z,18.40
2018-09-12T08:16:38.314Z,18.40
2018-09-12T08:19:09.405Z,18.50
2018-09-12T08:21:40.927Z,18.60
2018-09-12T08:24:12.942Z,18.70
2018-09-12T08:26:43.410Z,18.70
2018-09-12T08:29:14.217Z,18.70
2018-09-12T08:31:44.862Z,18.80
2018-09-12T08:34:16.112Z,18.80
2018-09-12T08:36:47.525Z,18.90
2018-09-12T08:39:18.242Z,19.10
2018-09-12T08:41:48.656Z,19.20
2018-09-12T08:44:19.257Z,19.30
2018-09-12T08:46:50.269Z,19.40
2018-09-12T08:49:21.005Z,19.50
2018-09-12T08:51:53.898Z,19.60
2018-09-12T08:54:25.595Z,19.80
2018-09-12T08:56:56.332Z,19.80
2018-09-12T08:59:29.655Z,19.90
2018-09-12T09:02:01.437Z,20.00
2018-09-12T09:04:32.864Z,20.10
2018-09-12T09:07:03.737Z,20.20
2018-09-12T09:09:34.181Z,20.30
2018-09-12T09:12:05.441Z,20.30
2018-09-12T09:14:36.021Z,20.40
2018-09-12T09:17:07.197Z,20.50
2018-09-12T09:19:37.542Z,20.60
2018-09-12T09:22:08.233Z,20.70
2018-09-12T09:24:38.600Z,20.80
2018-09-12T09:27:09.322Z,20.80
2018-09-12T09:29:40.313Z,21.00
2018-09-12T09:32:10.669Z,21.10
2018-09-12T09:34:41.033Z,21.30
2018-09-12T09:37:11.763Z,21.50
2018-09-12T09:39:44.388Z,21.70
2018-09-12T09:42:15.845Z,22.00
2018-09-12T09:44:46.409Z,22.30
2018-09-12T09:47:19.549Z,22.60
2018-09-12T09:49:54.061Z,22.90
2018-09-12T09:52:33.472Z,23.20
2018-09-12T09:55:04.693Z,23.40
2018-09-12T09:57:37.299Z,23.70
2018-09-12T10:00:15.776Z,24.00
2018-09-12T10:02:51.700Z,24.30
2018-09-12T10:05:26.157Z,24.60
2018-09-12T10:08:01.971Z,24.70
2018-09-12T10:10:32.289Z,24.90
2018-09-12T10:13:02.930Z,25.10
2018-09-12T10:15:34.168Z,25.50
2018-09-12T10:18:05.703Z,25.80
2018-09-12T10:20:37.540Z,26.00
2018-09-12T10:23:08.584Z,26.20
2018-09-12T10:25:40.283Z,26.20
2018-09-12T10:28:11.965Z,26.50
2018-09-12T10:30:43.221Z,26.70
2018-09-12T10:33:17.195Z,26.80
2018-09-12T10:35:48.846Z,26.80
2018-09-12T10:38:21.134Z,26.80
2018-09-12T10:40:52.380Z,26.70
2018-09-12T10:43:22.754Z,26.70
2018-09-12T10:45:54.445Z,26.80
2018-09-12T10:48:25.924Z,27.00
2018-09-12T10:50:58.232Z,27.30
2018-09-12T10:53:29.543Z,27.50
2018-09-12T10:56:01.820Z,27.60
2018-09-12T10:58:34.261Z,27.70
2018-09-12T11:01:05.840Z,27.80
2018-09-12T11:03:37.565Z,28.00
2018-09-12T11:06:08.162Z,28.20
2018-09-12T11:08:38.706Z,28.50
2018-09-12T11:11:09.121Z,28.60
2018-09-12T11:13:39.512Z,29.00
2018-09-12T11:16:10.194Z,29.20
2018-09-12T11:18:40.554Z,29.40
2018-09-12T11:21:10.978Z,29.80
2018-09-12T11:23:42.223Z,30.30
2018-09-12T11:26:12.838Z,30.80
2018-09-12T11:28:43.342Z,31.20
2018-09-12T11:31:14.191Z,31.70
2018-09-12T11:33:45.473Z,32.00
2018-09-12T11:36:15.927Z,32.60
2018-09-12T11:38:46.330Z,32.60
2018-09-12T11:41:17.717Z,32.60
2018-09-12T11:43:48.178Z,32.80
2018-09-12T11:46:19.723Z,33.00
2018-09-12T11:48:51.710Z,33.30
2018-09-12T11:51:22.880Z,33.20
2018-09-12T11:53:55.384Z,33.00
2018-09-12T11:56:25.868Z,32.70
2018-09-12T11:58:57.437Z,32.30
2018-09-12T12:01:28.871Z,32.30
2018-09-12T12:04:00.006Z,31.70
2018-09-12T12:06:31.288Z,31.30
2018-09-12T12:09:03.345Z,30.90
2018-09-12T12:11:33.881Z,30.80
2018-09-12T12:14:05.862Z,30.50
2018-09-12T12:16:36.512Z,30.50
2018-09-12T12:19:09.008Z,30.50
2018-09-12T12:21:39.436Z,30.80
2018-09-12T12:24:09.948Z,31.00
2018-09-12T12:26:42.185Z,31.50
2018-09-12T12:29:14.042Z,31.50
2018-09-12T12:31:44.480Z,32.10
2018-09-12T12:34:14.764Z,32.10
2018-09-12T12:36:46.251Z,32.40
2018-09-12T12:39:16.591Z,32.90
2018-09-12T12:41:48.616Z,33.30
2018-09-12T12:44:19.503Z,33.70
2018-09-12T12:46:51.031Z,34.00
2018-09-12T12:49:21.473Z,34.20
2018-09-12T12:51:52.073Z,34.30
2018-09-12T12:54:24.268Z,34.20
2018-09-12T12:56:55.531Z,34.10
2018-09-12T12:59:29.384Z,33.80
2018-09-12T13:02:00.638Z,33.50
2018-09-12T13:04:31.030Z,33.10
2018-09-12T13:07:02.077Z,32.80
2018-09-12T13:09:32.422Z,32.50
2018-09-12T13:12:05.648Z,32.20
2018-09-12T13:14:37.153Z,31.80
2018-09-12T13:17:07.561Z,31.20
2018-09-12T13:19:38.555Z,30.60
2018-09-12T13:22:09.365Z,29.90
2018-09-12T13:24:42.000Z,29.60
2018-09-12T13:27:12.952Z,29.40
2018-09-12T13:29:43.397Z,29.00
2018-09-12T13:32:13.923Z,28.80
2018-09-12T13:34:45.169Z,28.70
2018-09-12T13:37:16.163Z,28.40
2018-09-12T13:39:46.824Z,28.20
2018-09-12T13:42:17.402Z,28.10
2018-09-12T13:44:47.869Z,27.90
2018-09-12T13:47:19.161Z,27.80
2018-09-12T13:49:49.686Z,27.80
2018-09-12T13:52:20.258Z,27.80
2018-09-12T13:54:50.924Z,27.80
2018-09-12T13:57:21.309Z,27.80
2018-09-12T13:59:52.704Z,27.70
2018-09-12T14:02:23.086Z,27.70
2018-09-12T14:04:53.583Z,27.60
2018-09-12T14:07:23.935Z,27.70
2018-09-12T14:09:54.545Z,27.70
2018-09-12T14:12:25.456Z,27.60
2018-09-12T14:14:57.593Z,27.50
2018-09-12T14:17:28.860Z,27.50
2018-09-12T14:19:59.599Z,27.50
2018-09-12T14:22:31.206Z,27.50
2018-09-12T14:25:01.930Z,27.50
2018-09-12T14:27:33.357Z,27.60
2018-09-12T14:30:03.837Z,27.60
2018-09-12T14:32:34.411Z,27.70
2018-09-12T14:35:04.959Z,27.70
2018-09-12T14:37:35.841Z,27.80
2018-09-12T14:40:07.184Z,27.90
2018-09-12T14:42:37.617Z,28.00
2018-09-12T14:45:09.566Z,28.10
2018-09-12T14:47:41.006Z,28.10
2018-09-12T14:50:12.225Z,28.10
2018-09-12T14:52:42.536Z,28.20
2018-09-12T14:55:14.135Z,28.30
2018-09-12T14:57:44.609Z,28.40
2018-09-12T15:00:21.484Z,28.60
2018-09-12T15:02:51.907Z,28.70
2018-09-12T15:05:22.443Z,28.80
2018-09-12T15:07:53.774Z,29.00
2018-09-12T15:10:24.738Z,29.20
2018-09-12T15:12:55.892Z,29.30
2018-09-12T15:15:26.849Z,29.40
2018-09-12T15:17:57.907Z,29.50
2018-09-12T15:20:28.323Z,29.70
2018-09-12T15:22:58.660Z,30.00
2018-09-12T15:25:29.329Z,30.40
2018-09-12T15:27:59.795Z,30.70
2018-09-12T15:30:30.244Z,31.00
2018-09-12T15:33:01.008Z,31.40
2018-09-12T15:35:31.743Z,32.10
2018-09-12T15:38:02.153Z,32.70
2018-09-12T15:40:32.907Z,33.20
2018-09-12T15:43:03.497Z,33.70
2018-09-12T15:45:34.066Z,34.10
2018-09-12T15:48:04.381Z,34.10
2018-09-12T15:50:34.691Z,34.00
2018-09-12T15:53:04.996Z,34.00
2018-09-12T15:55:41.197Z,34.00
2018-09-12T15:58:11.644Z,34.00
2018-09-12T16:00:41.844Z,33.90
2018-09-12T16:03:12.147Z,33.80
2018-09-12T16:05:42.510Z,33.70
2018-09-12T16:08:12.797Z,33.50
2018-09-12T16:10:43.440Z,32.90
2018-09-12T16:13:15.078Z,32.20
2018-09-12T16:15:45.734Z,31.30
2018-09-12T16:18:16.271Z,30.40
2018-09-12T16:20:47.047Z,29.80
2018-09-12T16:23:17.264Z,29.10
2018-09-12T16:25:47.951Z,28.50
2018-09-12T16:28:18.483Z,27.90
2018-09-12T16:30:49.085Z,27.40
2018-09-12T16:33:19.800Z,26.90
2018-09-12T16:35:51.083Z,26.50
2018-09-12T16:38:21.430Z,26.30
2018-09-12T16:40:51.863Z,25.90
2018-09-12T16:43:23.214Z,25.70
2018-09-12T16:45:54.914Z,25.40
2018-09-12T16:48:25.841Z,25.10
2018-09-12T16:50:56.751Z,24.80
2018-09-12T16:53:27.468Z,24.50
2018-09-12T16:55:58.710Z,24.30
2018-09-12T16:58:32.923Z,24.00
2018-09-12T17:01:09.800Z,23.80
2018-09-12T17:03:43.525Z,23.60
2018-09-12T17:06:14.661Z,23.50
2018-09-12T17:08:51.779Z,23.30
2018-09-12T17:11:27.046Z,23.10
2018-09-12T17:14:00.539Z,22.90
2018-09-12T17:16:35.815Z,22.80
2018-09-12T17:19:10.398Z,22.70
2018-09-12T17:21:41.908Z,22.50
2018-09-12T17:24:14.342Z,22.50
2018-09-12T17:26:44.748Z,22.30
2018-09-12T17:29:15.386Z,22.20
2018-09-12T17:31:46.572Z,22.10
2018-09-12T17:34:18.853Z,22.00
2018-09-12T17:37:02.483Z,21.90
2018-09-12T17:39:33.939Z,21.80
2018-09-12T17:42:23.173Z,21.70
2018-09-12T17:44:56.780Z,21.60
2018-09-12T17:47:31.581Z,21.40
2018-09-12T17:50:04.341Z,21.30
2018-09-12T17:52:47.795Z,21.30
2018-09-12T17:55:20.476Z,21.20
2018-09-12T17:57:51.999Z,21.10
2018-09-12T18:00:41.221Z,21.00
2018-09-12T18:03:11.809Z,20.90
2018-09-12T18:05:45.326Z,20.80
2018-09-12T18:08:16.280Z,20.70
2018-09-12T18:10:46.713Z,20.70
2018-09-12T18:13:17.029Z,20.60
2018-09-12T18:15:47.439Z,20.50
2018-09-12T18:18:17.792Z,20.40
2018-09-12T18:20:48.076Z,20.40
2018-09-12T18:23:18.468Z,20.30
2018-09-12T18:25:49.516Z,20.30
2018-09-12T18:28:19.972Z,20.20
2018-09-12T18:30:50.356Z,20.20
2018-09-12T18:33:20.832Z,20.00
2018-09-12T18:35:51.487Z,20.00
2018-09-12T18:38:25.593Z,19.90
2018-09-12T18:40:55.925Z,19.80
2018-09-12T18:43:26.660Z,19.80
2018-09-12T18:45:57.249Z,19.80
2018-09-12T18:48:27.857Z,19.70
2018-09-12T18:50:59.004Z,19.70
2018-09-12T18:53:29.917Z,19.60
2018-09-12T18:56:01.070Z,19.60
2018-09-12T18:58:33.240Z,19.50
2018-09-12T19:01:03.740Z,19.40
2018-09-12T19:03:34.268Z,19.40
2018-09-12T19:06:05.856Z,19.40
2018-09-12T19:08:37.674Z,19.30
2018-09-12T19:11:08.086Z,19.20
2018-09-12T19:13:38.542Z,19.10
2018-09-12T19:16:09.037Z,19.10
2018-09-12T19:18:39.856Z,19.00
2018-09-12T19:21:10.787Z,18.90
2018-09-12T19:23:41.449Z,18.80
2018-09-12T19:26:12.750Z,18.80
2018-09-12T19:28:43.578Z,18.70
2018-09-12T19:31:14.991Z,18.70
2018-09-12T19:33:46.907Z,18.70
2018-09-12T19:36:30.900Z,18.60
2018-09-12T19:39:12.552Z,18.50
2018-09-12T19:41:43.088Z,18.50
2018-09-12T19:44:14.264Z,18.40
2018-09-12T19:46:45.050Z,18.40
2018-09-12T19:49:15.784Z,18.30
2018-09-12T19:51:47.187Z,18.30
2018-09-12T19:54:18.158Z,18.20
2018-09-12T19:56:49.368Z,18.20
2018-09-12T19:59:19.775Z,18.20
2018-09-12T20:01:50.436Z,18.20
2018-09-12T20:04:21.087Z,18.10
2018-09-12T20:06:51.994Z,18.10
2018-09-12T20:09:29.762Z,18.00
2018-09-12T20:12:00.437Z,18.00
2018-09-12T20:14:31.481Z,17.90
2018-09-12T20:17:01.727Z,17.90
2018-09-12T20:19:32.341Z,17.80
2018-09-12T20:22:02.649Z,17.80
2018-09-12T20:24:32.921Z,17.80
2018-09-12T20:27:03.198Z,17.80
2018-09-12T20:29:33.515Z,17.80
2018-09-12T20:32:03.916Z,17.70
2018-09-12T20:34:34.399Z,17.70
2018-09-12T20:37:04.813Z,17.60
2018-09-12T20:39:36.245Z,17.60
2018-09-12T20:42:06.749Z,17.60
2018-09-12T20:44:37.017Z,17.60
2018-09-12T20:47:07.320Z,17.50
2018-09-12T20:49:37.623Z,17.50
2018-09-12T20:52:08.853Z,17.50
2018-09-12T20:54:39.445Z,17.50
2018-09-12T20:57:09.851Z,17.40
2018-09-12T20:59:40.104Z,17.40
2018-09-12T21:02:10.391Z,17.40
2018-09-12T21:04:40.656Z,17.40
2018-09-12T21:07:10.915Z,17.40
2018-09-12T21:09:41.305Z,17.40
2018-09-12T21:12:11.564Z,17.40
2018-09-12T21:14:41.831Z,17.40
2018-09-12T21:17:12.693Z,17.40
2018-09-12T21:19:42.973Z,17.30
2018-09-12T21:22:13.232Z,17.30
2018-09-12T21:24:43.500Z,17.30
2018-09-12T21:27:13.900Z,17.30
2018-09-12T21:29:44.206Z,17.20
2018-09-12T21:32:14.477Z,17.20
2018-09-12T21:34:44.808Z,17.10
2018-09-12T21:37:15.107Z,17.10
2018-09-12T21:39:46.188Z,17.00
2018-09-12T21:42:16.468Z,17.00
2018-09-12T21:44:46.700Z,17.00
2018-09-12T21:47:16.961Z,17.00
2018-09-12T21:49:47.288Z,17.00
2018-09-12T21:52:17.552Z,17.00
2018-09-12T21:54:47.952Z,16.90
2018-09-12T21:57:22.033Z,16.90
2018-09-12T21:59:52.296Z,16.80
2018-09-12T22:02:22.590Z,16.80
2018-09-12T22:04:52.868Z,16.70
2018-09-12T22:07:23.132Z,16.70
2018-09-12T22:09:53.443Z,16.70
2018-09-12T22:12:23.703Z,16.60
2018-09-12T22:14:54.003Z,16.60
2018-09-12T22:17:24.265Z,16.60
2018-09-12T22:19:54.554Z,16.50
2018-09-12T22:22:25.321Z,16.50
2018-09-12T22:24:55.596Z,16.50
2018-09-12T22:27:25.856Z,16.50
2018-09-12T22:29:56.376Z,16.50
2018-09-12T22:32:26.612Z,16.50
2018-09-12T22:34:56.889Z,16.40
2018-09-12T22:37:27.189Z,16.40
2018-09-12T22:39:57.492Z,16.40
2018-09-12T22:42:27.759Z,16.40
2018-09-12T22:44:58.019Z,16.40
2018-09-12T22:47:28.293Z,16.30
2018-09-12T22:49:58.569Z,16.30
2018-09-12T22:52:28.852Z,16.30
2018-09-12T22:54:59.120Z,16.20
2018-09-12T22:57:29.424Z,16.20
2018-09-12T22:59:59.721Z,16.10
2018-09-12T23:02:30.017Z,16.10
2018-09-12T23:05:00.276Z,16.00
2018-09-12T23:07:30.544Z,16.10
2018-09-12T23:10:00.840Z,16.00
2018-09-12T23:12:31.093Z,16.00
2018-09-12T23:15:01.324Z,15.90
2018-09-12T23:17:31.676Z,15.90
2018-09-12T23:20:01.906Z,15.80
2018-09-12T23:22:32.285Z,15.80
2018-09-12T23:25:02.562Z,15.80
2018-09-12T23:27:32.883Z,15.80
2018-09-12T23:30:03.203Z,15.80
2018-09-12T23:32:33.508Z,15.80
2018-09-12T23:35:03.767Z,15.70
2018-09-12T23:37:34.200Z,15.70
2018-09-12T23:40:04.525Z,15.70
2018-09-12T23:42:34.833Z,15.70
2018-09-12T23:45:05.324Z,15.60
2018-09-12T23:47:35.716Z,15.60
2018-09-12T23:50:06.245Z,15.60
2018-09-12T23:52:36.515Z,15.60
2018-09-12T23:55:06.881Z,15.60
2018-09-12T23:57:37.200Z,15.60
